Time;durP1;ratioP1;P1;durP2;ratioP2;P2;SDS_P1;SDS_P2;PMS_P1;PMS_P2;Temp;Humidity;BMP_temperature;BMP_pressure;BME280_temperature;BME280_humidity;BME280_pressure;Samples;Min_cycle;Max_cycle;Signal;HPM_P1;HPM_P2
2024/01/15 00:01:56;;;;;;;7.67;3.90;;;;;;;;;;4967893;28;20222;-86
2024/01/15 00:04:21;;;;;;;7.43;3.90;;;;;;;;;;4950993;28;20210;-87
2024/01/15 00:06:47;;;;;;;11.03;3.93;;;;;;;;;;4958824;28;20226;-85
2024/01/15 00:09:14;;;;;;;6.43;3.60;;;;;;;;;;4971057;28;20226;-87
2024/01/15 00:11:40;;;;;;;12.60;4.20;;;;;;;;;;4954861;28;20233;-89
2024/01/15 00:14:08;;;;;;;6.37;4.10;;;;;;;;;;4961372;28;20222;-88
2024/01/15 00:16:34;;;;;;;5.20;3.30;;;;;;;;;;4982076;28;20307;-84
2024/01/15 00:19:04;;;;;;;9.43;3.80;;;;;;;;;;4955726;28;20748;-88
2024/01/15 00:21:29;;;;;;;9.90;4.33;;;;;;;;;;4941952;28;20309;-87
2024/01/15 00:23:55;;;;;;;8.57;3.87;;;;;;;;;;4944063;28;20234;-88
2024/01/15 00:26:21;;;;;;;11.40;3.70;;;;;;;;;;4973819;28;20219;-86
2024/01/15 00:28:51;;;;;;;8.10;3.70;;;;;;;;;;4959523;28;20250;-84
2024/01/15 00:31:17;;;;;;;6.93;3.77;;;;;;;;;;4982574;28;20294;-85
2024/01/15 00:33:45;;;;;;;6.90;3.70;;;;;;;;;;4959594;28;20226;-86
2024/01/15 00:36:21;;;;;;;12.77;3.10;;;;;;;;;;4960568;28;20444;-87
2024/01/15 00:38:52;;;;;;;8.00;3.47;;;;;;;;;;4975295;28;20887;-87
2024/01/15 00:41:20;;;;;;;6.47;2.27;;;;;;;;;;4954121;28;20282;-87
2024/01/15 00:43:49;;;;;;;8.37;3.37;;;;;;;;;;4977133;28;20785;-85
2024/01/15 00:46:20;;;;;;;7.33;2.33;;;;;;;;;;4966204;28;20700;-86
2024/01/15 00:48:48;;;;;;;7.37;2.53;;;;;;;;;;4961170;28;20238;-88
2024/01/15 00:51:13;;;;;;;6.67;2.53;;;;;;;;;;4980000;28;20226;-87
2024/01/15 00:53:41;;;;;;;5.93;2.23;;;;;;;;;;4970686;28;20376;-89
2024/01/15 00:56:09;;;;;;;14.93;2.77;;;;;;;;;;4959020;28;20703;-88
2024/01/15 00:58:35;;;;;;;7.07;2.30;;;;;;;;;;4964221;28;20716;-85
2024/01/15 01:01:00;;;;;;;3.80;2.13;;;;;;;;;;4963604;28;20226;-86
2024/01/15 01:03:28;;;;;;;8.97;2.47;;;;;;;;;;4961583;28;20287;-85
2024/01/15 01:05:56;;;;;;;5.47;2.77;;;;;;;;;;4981622;28;20230;-88
2024/01/15 01:08:24;;;;;;;7.10;2.67;;;;;;;;;;4973797;28;20237;-87
2024/01/15 01:10:52;;;;;;;5.53;2.10;;;;;;;;;;4941703;28;20275;-86
2024/01/15 01:13:17;;;;;;;4.43;2.40;;;;;;;;;;4940120;28;20269;-87
2024/01/15 01:15:43;;;;;;;6.70;2.60;;;;;;;;;;4948534;29;20231;-87
2024/01/15 01:18:08;;;;;;;4.50;2.43;;;;;;;;;;4938456;28;20234;-88
2024/01/15 01:20:34;;;;;;;6.90;2.77;;;;;;;;;;4960500;28;20218;-89
2024/01/15 01:22:59;;;;;;;7.80;2.63;;;;;;;;;;4960751;28;20646;-88
2024/01/15 01:25:27;;;;;;;6.87;2.20;;;;;;;;;;4954991;28;20213;-87
2024/01/15 01:27:53;;;;;;;5.03;2.23;;;;;;;;;;4962531;28;20219;-86
2024/01/15 01:30:21;;;;;;;7.13;2.47;;;;;;;;;;4969105;28;20222;-86
2024/01/15 01:32:46;;;;;;;8.27;2.47;;;;;;;;;;4978994;28;20698;-86
2024/01/15 01:35:12;;;;;;;5.90;1.97;;;;;;;;;;4976056;28;20222;-86
2024/01/15 01:37:38;;;;;;;8.00;2.40;;;;;;;;;;4946823;28;20354;-88
2024/01/15 01:40:07;;;;;;;5.87;2.20;;;;;;;;;;4966998;28;20227;-85
2024/01/15 01:42:32;;;;;;;7.17;1.63;;;;;;;;;;4950085;28;20206;-86
2024/01/15 01:44:58;;;;;;;8.67;2.40;;;;;;;;;;4970966;28;20235;-86
2024/01/15 01:47:26;;;;;;;7.33;2.40;;;;;;;;;;4937596;28;20700;-86
2024/01/15 01:49:54;;;;;;;9.37;2.50;;;;;;;;;;4956811;28;20314;-85
2024/01/15 01:52:20;;;;;;;9.57;2.37;;;;;;;;;;4959895;28;20245;-87
2024/01/15 01:54:50;;;;;;;7.23;2.13;;;;;;;;;;4981155;28;20389;-86
2024/01/15 01:57:15;;;;;;;5.23;1.90;;;;;;;;;;4970672;28;20225;-86
2024/01/15 01:59:41;;;;;;;6.77;1.83;;;;;;;;;;4978739;28;20218;-84
2024/01/15 02:02:08;;;;;;;6.10;1.73;;;;;;;;;;4949621;28;20224;-88
2024/01/15 02:04:36;;;;;;;8.30;2.23;;;;;;;;;;4969488;28;20292;-87
2024/01/15 02:07:04;;;;;;;7.23;2.10;;;;;;;;;;4959583;28;20229;-87
2024/01/15 02:09:30;;;;;;;6.63;1.90;;;;;;;;;;4960684;28;20214;-86
2024/01/15 02:11:57;;;;;;;5.07;1.87;;;;;;;;;;4944912;28;20238;-85
2024/01/15 02:14:23;;;;;;;4.40;1.77;;;;;;;;;;4966472;28;20233;-85
2024/01/15 02:16:51;;;;;;;3.30;1.40;;;;;;;;;;4979968;28;20287;-88
2024/01/15 02:19:17;;;;;;;8.73;2.00;;;;;;;;;;4987612;28;20233;-85
2024/01/15 02:21:47;;;;;;;8.53;2.17;;;;;;;;;;4958589;28;20249;-87
2024/01/15 02:24:15;;;;;;;8.30;2.03;;;;;;;;;;4957298;28;20219;-86
2024/01/15 02:26:43;;;;;;;5.07;1.40;;;;;;;;;;4955074;28;20277;-89
2024/01/15 02:29:08;;;;;;;6.87;1.90;;;;;;;;;;4966659;28;20234;-87
2024/01/15 02:31:37;;;;;;;3.47;1.70;;;;;;;;;;4939157;28;20230;-85
2024/01/15 02:34:05;;;;;;;5.80;1.63;;;;;;;;;;4970356;28;20218;-86
2024/01/15 02:36:31;;;;;;;2.83;1.20;;;;;;;;;;4975229;28;20220;-87
2024/01/15 02:38:59;;;;;;;6.53;1.80;;;;;;;;;;4950390;28;20230;-87
2024/01/15 02:41:24;;;;;;;4.33;1.20;;;;;;;;;;4943223;28;20220;-86
2024/01/15 02:43:50;;;;;;;7.37;1.53;;;;;;;;;;4951321;28;20244;-86
2024/01/15 02:46:18;;;;;;;5.33;1.40;;;;;;;;;;4960631;28;20559;-88
2024/01/15 02:48:50;;;;;;;7.43;2.30;;;;;;;;;;4953053;28;20233;-86
2024/01/15 02:51:16;;;;;;;5.73;2.03;;;;;;;;;;4952519;28;20235;-87
2024/01/15 02:53:41;;;;;;;4.83;1.80;;;;;;;;;;4943558;28;20272;-87
2024/01/15 02:56:07;;;;;;;6.60;1.80;;;;;;;;;;4953487;28;20624;-87
2024/01/15 02:58:33;;;;;;;3.97;1.67;;;;;;;;;;4947277;28;20687;-90
2024/01/15 03:00:58;;;;;;;3.73;1.70;;;;;;;;;;4975201;28;20272;-87
2024/01/15 03:03:29;;;;;;;5.67;1.93;;;;;;;;;;4933165;28;20219;-87
2024/01/15 03:05:54;;;;;;;4.30;2.00;;;;;;;;;;4942689;28;20232;-87
2024/01/15 03:08:22;;;;;;;4.57;2.20;;;;;;;;;;4961772;28;20230;-85
2024/01/15 03:10:50;;;;;;;3.20;1.97;;;;;;;;;;4960757;28;20266;-84
2024/01/15 03:13:27;;;;;;;9.70;2.53;;;;;;;;;;4945701;28;20214;-86
2024/01/15 03:15:52;;;;;;;4.03;2.20;;;;;;;;;;4957684;28;20518;-86
2024/01/15 03:18:18;;;;;;;6.90;2.60;;;;;;;;;;4982607;28;20233;-86
2024/01/15 03:20:43;;;;;;;10.83;2.13;;;;;;;;;;4962774;28;20226;-86
2024/01/15 03:23:11;;;;;;;7.70;2.60;;;;;;;;;;4950960;28;20225;-87
2024/01/15 03:25:37;;;;;;;4.07;2.27;;;;;;;;;;4956665;28;20309;-87
2024/01/15 03:28:02;;;;;;;6.73;2.43;;;;;;;;;;4958589;28;20240;-85
2024/01/15 03:30:28;;;;;;;7.07;2.30;;;;;;;;;;4934536;28;20285;-84
2024/01/15 03:32:56;;;;;;;6.00;2.30;;;;;;;;;;4968822;28;20225;-84
2024/01/15 03:35:29;;;;;;;5.13;2.23;;;;;;;;;;4967450;28;20269;-86
2024/01/15 03:37:54;;;;;;;6.50;2.43;;;;;;;;;;4967037;28;20257;-85
2024/01/15 03:40:20;;;;;;;7.97;2.53;;;;;;;;;;4952612;28;20242;-86
2024/01/15 03:42:48;;;;;;;6.20;1.90;;;;;;;;;;4951160;28;20206;-88
2024/01/15 03:45:13;;;;;;;4.97;2.47;;;;;;;;;;4964700;28;20238;-88
2024/01/15 03:47:41;;;;;;;6.83;2.30;;;;;;;;;;4949803;28;20226;-86
2024/01/15 03:50:07;;;;;;;5.93;2.20;;;;;;;;;;4933680;28;20227;-86
2024/01/15 03:52:35;;;;;;;6.30;2.13;;;;;;;;;;4995869;28;20236;-86
2024/01/15 03:55:01;;;;;;;6.60;2.37;;;;;;;;;;4960850;28;20241;-86
2024/01/15 03:57:26;;;;;;;8.70;1.97;;;;;;;;;;4940975;28;20294;-88
2024/01/15 04:03:41;;;;;;;5.57;2.20;;;;;;;;;;4970024;28;20573;-88
2024/01/15 04:06:06;;;;;;;5.93;2.53;;;;;;;;;;4942515;28;20375;-88
2024/01/15 04:08:32;;;;;;;4.63;2.27;;;;;;;;;;4941257;28;20241;-86
2024/01/15 04:10:57;;;;;;;7.53;2.60;;;;;;;;;;4963945;28;20241;-88
2024/01/15 04:13:23;;;;;;;6.40;2.50;;;;;;;;;;4960367;28;20229;-85
2024/01/15 04:15:48;;;;;;;6.27;2.60;;;;;;;;;;4968605;28;20221;-85
2024/01/15 04:18:19;;;;;;;4.90;2.03;;;;;;;;;;4963520;28;20297;-86
2024/01/15 04:20:44;;;;;;;13.73;3.27;;;;;;;;;;4971068;28;20237;-85
2024/01/15 04:23:10;;;;;;;9.97;2.63;;;;;;;;;;4960182;28;20606;-87
2024/01/15 04:25:38;;;;;;;5.87;2.30;;;;;;;;;;4987111;28;20288;-86
2024/01/15 04:28:04;;;;;;;6.70;2.63;;;;;;;;;;4976196;28;20234;-86
2024/01/15 04:30:30;;;;;;;11.07;3.60;;;;;;;;;;4972323;28;20617;-87
2024/01/15 04:32:58;;;;;;;9.47;3.10;;;;;;;;;;4960071;28;20226;-85
2024/01/15 04:35:23;;;;;;;9.00;2.80;;;;;;;;;;4944217;28;20305;-88
2024/01/15 04:37:51;;;;;;;15.40;2.53;;;;;;;;;;4976041;28;20222;-86
2024/01/15 04:40:17;;;;;;;8.23;2.70;;;;;;;;;;4947104;28;20582;-87
2024/01/15 04:42:42;;;;;;;7.50;2.37;;;;;;;;;;4958121;28;20222;-85
2024/01/15 04:45:13;;;;;;;5.83;2.37;;;;;;;;;;4962147;28;20336;-86
2024/01/15 04:47:39;;;;;;;8.20;2.70;;;;;;;;;;4940441;28;20240;-87
2024/01/15 04:50:05;;;;;;;5.93;2.47;;;;;;;;;;4943342;28;20241;-89
2024/01/15 04:52:35;;;;;;;9.00;2.30;;;;;;;;;;4950743;28;20271;-87
2024/01/15 04:55:01;;;;;;;5.47;2.33;;;;;;;;;;4966005;28;20259;-85
2024/01/15 04:57:26;;;;;;;6.73;2.00;;;;;;;;;;4968982;28;21325;-87
2024/01/15 04:59:52;;;;;;;4.23;2.00;;;;;;;;;;4986937;28;20277;-86
2024/01/15 05:02:19;;;;;;;5.93;2.50;;;;;;;;;;4955748;28;21090;-85
2024/01/15 05:04:45;;;;;;;7.23;2.50;;;;;;;;;;4976234;28;20229;-85
2024/01/15 05:07:10;;;;;;;6.27;2.20;;;;;;;;;;4975083;28;20741;-85
2024/01/15 05:09:36;;;;;;;8.40;2.80;;;;;;;;;;4944402;28;20747;-86
2024/01/15 05:12:01;;;;;;;5.47;2.30;;;;;;;;;;4948928;28;20234;-87
2024/01/15 05:14:29;;;;;;;10.70;2.80;;;;;;;;;;4947977;28;20214;-83
2024/01/15 05:16:54;;;;;;;3.67;1.70;;;;;;;;;;4961809;28;20234;-85
2024/01/15 05:19:25;;;;;;;5.73;2.33;;;;;;;;;;4928638;28;20276;-84
2024/01/15 05:21:53;;;;;;;5.87;2.37;;;;;;;;;;4946236;28;20301;-85
2024/01/15 05:24:21;;;;;;;4.90;2.00;;;;;;;;;;4951477;28;20222;-87
2024/01/15 05:26:46;;;;;;;6.70;2.50;;;;;;;;;;4957400;28;20603;-87
2024/01/15 05:29:12;;;;;;;8.47;2.73;;;;;;;;;;4958594;28;20272;-86
2024/01/15 05:31:38;;;;;;;6.17;2.67;;;;;;;;;;4949599;28;20469;-84
2024/01/15 05:34:03;;;;;;;5.97;2.53;;;;;;;;;;4957960;28;20225;-86
2024/01/15 05:36:29;;;;;;;8.30;2.67;;;;;;;;;;4981534;28;20219;-84
2024/01/15 05:38:54;;;;;;;8.60;2.70;;;;;;;;;;4959861;28;20230;-86
2024/01/15 05:41:20;;;;;;;6.83;2.67;;;;;;;;;;4979057;28;20218;-86
2024/01/15 05:43:48;;;;;;;4.93;2.30;;;;;;;;;;4958680;28;20221;-87
2024/01/15 05:46:13;;;;;;;6.97;2.40;;;;;;;;;;4958642;28;20230;-85
2024/01/15 05:48:44;;;;;;;6.23;2.37;;;;;;;;;;5007203;28;20308;-86
2024/01/15 05:51:12;;;;;;;9.67;2.50;;;;;;;;;;4969944;28;20222;-86
2024/01/15 05:53:40;;;;;;;8.63;2.67;;;;;;;;;;4939862;28;20229;-85
2024/01/15 05:56:07;;;;;;;6.60;2.80;;;;;;;;;;4958554;28;20221;-86
2024/01/15 05:58:33;;;;;;;6.10;2.87;;;;;;;;;;4952952;28;20227;-85
2024/01/15 06:00:58;;;;;;;9.17;3.20;;;;;;;;;;4922917;28;20879;-86
2024/01/15 06:03:24;;;;;;;8.40;2.70;;;;;;;;;;4943425;28;20230;-87
2024/01/15 06:05:49;;;;;;;7.93;2.50;;;;;;;;;;4953364;28;20211;-88
2024/01/15 06:08:15;;;;;;;3.73;1.93;;;;;;;;;;4950492;28;20749;-87
2024/01/15 06:10:45;;;;;;;5.30;2.13;;;;;;;;;;4936130;28;20610;-87
2024/01/15 06:13:13;;;;;;;8.60;2.67;;;;;;;;;;4956923;28;20220;-87
2024/01/15 06:15:41;;;;;;;7.13;2.70;;;;;;;;;;4975554;28;20281;-86
2024/01/15 06:18:06;;;;;;;5.90;2.20;;;;;;;;;;4949276;28;20322;-87
2024/01/15 06:20:32;;;;;;;5.50;2.43;;;;;;;;;;4930806;28;20246;-89
2024/01/15 06:22:57;;;;;;;6.13;2.60;;;;;;;;;;4938637;28;20219;-87
2024/01/15 06:25:23;;;;;;;9.37;2.40;;;;;;;;;;4950879;28;20226;-85
2024/01/15 06:27:48;;;;;;;9.30;2.60;;;;;;;;;;4972256;28;20240;-89
2024/01/15 06:30:14;;;;;;;5.17;2.37;;;;;;;;;;4941008;28;20237;-88
2024/01/15 06:32:43;;;;;;;6.77;2.10;;;;;;;;;;4956446;28;20309;-87
2024/01/15 06:35:10;;;;;;;6.47;2.50;;;;;;;;;;4959358;28;20291;-88
2024/01/15 06:37:36;;;;;;;5.03;2.27;;;;;;;;;;4979631;28;20234;-88
2024/01/15 06:40:01;;;;;;;5.73;2.13;;;;;;;;;;4922504;28;20273;-86
2024/01/15 06:42:30;;;;;;;4.90;2.50;;;;;;;;;;4938370;28;20246;-87
2024/01/15 06:44:55;;;;;;;5.83;2.17;;;;;;;;;;4963899;28;20628;-85
2024/01/15 06:47:21;;;;;;;3.63;2.60;;;;;;;;;;4938186;28;20215;-88
2024/01/15 06:49:46;;;;;;;6.00;2.43;;;;;;;;;;4968302;28;20226;-87
2024/01/15 06:52:14;;;;;;;6.07;2.60;;;;;;;;;;4942234;28;20314;-87
2024/01/15 06:54:39;;;;;;;7.47;2.30;;;;;;;;;;4946608;28;20230;-90
2024/01/15 06:57:06;;;;;;;7.20;2.40;;;;;;;;;;4962554;28;20218;-87
2024/01/15 06:59:33;;;;;;;4.23;2.13;;;;;;;;;;4959311;28;20668;-86
2024/01/15 07:02:01;;;;;;;6.87;2.37;;;;;;;;;;4967460;28;20214;-88
2024/01/15 07:04:29;;;;;;;5.70;2.43;;;;;;;;;;4953905;28;20229;-87
2024/01/15 07:06:54;;;;;;;4.27;2.37;;;;;;;;;;4939801;28;20226;-89
2024/01/15 07:09:20;;;;;;;4.73;2.20;;;;;;;;;;4918027;28;20230;-87
2024/01/15 07:11:46;;;;;;;6.30;2.83;;;;;;;;;;4952390;28;20221;-89
2024/01/15 07:14:14;;;;;;;12.23;3.47;;;;;;;;;;4963987;28;20226;-88
2024/01/15 07:16:39;;;;;;;7.00;3.10;;;;;;;;;;4967273;28;20235;-86
2024/01/15 07:19:05;;;;;;;9.00;2.90;;;;;;;;;;4967685;28;20269;-86
2024/01/15 07:21:31;;;;;;;5.07;2.83;;;;;;;;;;4978608;28;20277;-86
2024/01/15 07:23:59;;;;;;;10.47;4.03;;;;;;;;;;4992217;28;20206;-88
2024/01/15 07:26:26;;;;;;;5.43;2.90;;;;;;;;;;4945779;28;20226;-86
2024/01/15 07:28:54;;;;;;;5.63;3.20;;;;;;;;;;4977447;28;20206;-82
2024/01/15 07:31:22;;;;;;;7.73;3.70;;;;;;;;;;4961231;28;20234;-84
2024/01/15 07:33:53;;;;;;;7.40;3.70;;;;;;;;;;4973971;28;20210;-84
2024/01/15 07:36:21;;;;;;;6.33;3.03;;;;;;;;;;4974425;28;20723;-76
2024/01/15 07:38:46;;;;;;;8.20;2.97;;;;;;;;;;4953974;28;20534;-79
2024/01/15 07:41:15;;;;;;;7.73;2.90;;;;;;;;;;4953722;28;20222;-77
2024/01/15 07:43:43;;;;;;;7.30;2.90;;;;;;;;;;4951937;28;20232;-77
2024/01/15 07:46:11;;;;;;;8.07;3.70;;;;;;;;;;4995236;28;20735;-77
2024/01/15 07:48:36;;;;;;;7.00;3.73;;;;;;;;;;4979174;28;20249;-76
2024/01/15 07:51:03;;;;;;;7.57;3.60;;;;;;;;;;4965830;28;20230;-77
2024/01/15 07:53:33;;;;;;;8.57;4.53;;;;;;;;;;4992196;28;20253;-77
2024/01/15 07:56:01;;;;;;;6.93;3.20;;;;;;;;;;4976557;28;20566;-77
2024/01/15 07:58:26;;;;;;;7.60;3.57;;;;;;;;;;4977106;28;20218;-76
2024/01/15 08:00:52;;;;;;;10.13;4.77;;;;;;;;;;4975429;28;20214;-77
2024/01/15 08:03:18;;;;;;;4.87;3.77;;;;;;;;;;4959576;28;20221;-76
2024/01/15 08:05:43;;;;;;;8.97;6.43;;;;;;;;;;4958134;28;20230;-77
2024/01/15 08:08:14;;;;;;;6.83;4.03;;;;;;;;;;4969098;28;20226;-79
2024/01/15 08:10:39;;;;;;;6.97;3.17;;;;;;;;;;4980658;28;20240;-78
2024/01/15 08:13:07;;;;;;;7.30;4.67;;;;;;;;;;4949746;28;20225;-76
2024/01/15 08:15:33;;;;;;;14.13;5.47;;;;;;;;;;4976834;28;20262;-77
2024/01/15 08:17:59;;;;;;;8.93;6.00;;;;;;;;;;4975467;28;20763;-75
2024/01/15 08:20:25;;;;;;;10.20;5.77;;;;;;;;;;4975660;28;20228;-77
2024/01/15 08:22:50;;;;;;;5.23;4.43;;;;;;;;;;4961224;28;20309;-77
2024/01/15 08:25:19;;;;;;;4.60;3.57;;;;;;;;;;4942355;28;20214;-77
2024/01/15 08:27:47;;;;;;;5.13;2.73;;;;;;;;;;4947618;28;20249;-77
2024/01/15 08:30:15;;;;;;;2.60;1.97;;;;;;;;;;4953909;28;20654;-77
2024/01/15 08:32:42;;;;;;;4.27;2.37;;;;;;;;;;4956735;28;20758;-79
2024/01/15 08:35:09;;;;;;;3.40;2.30;;;;;;;;;;4971700;28;20323;-77
2024/01/15 08:37:34;;;;;;;3.23;1.60;;;;;;;;;;4984924;28;20242;-77
2024/01/15 08:40:03;;;;;;;6.43;1.70;;;;;;;;;;4952769;28;20226;-78
2024/01/15 08:42:31;;;;;;;2.17;1.20;;;;;;;;;;4983828;28;20305;-77
2024/01/15 08:44:59;;;;;;;1.50;1.40;;;;;;;;;;4986333;28;20782;-78
2024/01/15 08:47:25;;;;;;;1.40;1.30;;;;;;;;;;4955726;28;20829;-76
2024/01/15 08:49:54;;;;;;;3.13;1.23;;;;;;;;;;4955445;28;20226;-78
2024/01/15 08:52:21;;;;;;;2.30;1.70;;;;;;;;;;4984826;28;20222;-76
2024/01/15 08:54:49;;;;;;;2.77;1.90;;;;;;;;;;4952266;28;20233;-77
2024/01/15 08:57:15;;;;;;;1.87;1.73;;;;;;;;;;4955366;28;20218;-77
2024/01/15 08:59:41;;;;;;;2.73;2.10;;;;;;;;;;4984718;28;20234;-77
2024/01/15 09:02:09;;;;;;;3.30;2.63;;;;;;;;;;4968064;28;20575;-77
2024/01/15 09:04:34;;;;;;;4.47;3.10;;;;;;;;;;4985637;28;20236;-78
2024/01/15 09:07:02;;;;;;;5.80;3.13;;;;;;;;;;4986047;28;20662;-77
2024/01/15 09:09:30;;;;;;;4.80;3.07;;;;;;;;;;4986256;28;20221;-76
2024/01/15 09:11:56;;;;;;;3.50;2.93;;;;;;;;;;4960727;28;20257;-76
2024/01/15 09:14:26;;;;;;;5.70;3.53;;;;;;;;;;4957229;28;20226;-76
2024/01/15 09:16:54;;;;;;;4.97;2.80;;;;;;;;;;4954885;28;20309;-76
2024/01/15 09:19:23;;;;;;;3.87;3.00;;;;;;;;;;4971042;28;20264;-77
2024/01/15 09:21:48;;;;;;;3.77;1.60;;;;;;;;;;4957721;28;20222;-79
2024/01/15 09:24:14;;;;;;;1.57;1.43;;;;;;;;;;4974182;28;20234;-78
2024/01/15 09:26:40;;;;;;;3.80;1.80;;;;;;;;;;4974842;28;20252;-75
2024/01/15 09:29:07;;;;;;;2.10;1.70;;;;;;;;;;4951553;28;20309;-76
2024/01/15 09:31:33;;;;;;;3.27;2.23;;;;;;;;;;4943357;28;20321;-75
2024/01/15 09:34:02;;;;;;;4.70;2.30;;;;;;;;;;4951655;28;20280;-76
2024/01/15 09:36:27;;;;;;;2.57;2.20;;;;;;;;;;4966282;28;20300;-75
2024/01/15 09:38:55;;;;;;;2.40;2.20;;;;;;;;;;4939654;28;20229;-76
2024/01/15 09:41:21;;;;;;;3.73;2.80;;;;;;;;;;4967600;28;20214;-75
2024/01/15 09:43:49;;;;;;;4.90;2.97;;;;;;;;;;4966238;28;20893;-76
2024/01/15 09:46:14;;;;;;;2.13;1.93;;;;;;;;;;4953567;28;20317;-78
2024/01/15 09:48:40;;;;;;;2.87;2.00;;;;;;;;;;4966475;28;20242;-75
2024/01/15 09:51:06;;;;;;;2.97;2.33;;;;;;;;;;4965221;28;20229;-75
2024/01/15 09:53:31;;;;;;;3.53;2.93;;;;;;;;;;4950731;28;20222;-75
2024/01/15 09:55:58;;;;;;;5.77;2.87;;;;;;;;;;4967136;28;20218;-77
2024/01/15 09:58:24;;;;;;;3.07;2.53;;;;;;;;;;4950165;28;20716;-76
2024/01/15 10:00:52;;;;;;;3.50;2.60;;;;;;;;;;4951439;28;20594;-77
2024/01/15 10:03:17;;;;;;;6.13;3.03;;;;;;;;;;4951646;28;20376;-76
2024/01/15 10:05:43;;;;;;;4.30;3.33;;;;;;;;;;4966554;28;20859;-76
2024/01/15 10:08:10;;;;;;;3.13;2.83;;;;;;;;;;4949060;28;20234;-77
2024/01/15 10:10:38;;;;;;;6.47;2.50;;;;;;;;;;4944373;28;20237;-76
2024/01/15 10:13:07;;;;;;;4.33;2.53;;;;;;;;;;4982686;28;20222;-76
2024/01/15 10:15:38;;;;;;;4.50;2.67;;;;;;;;;;4966842;28;20226;-76
2024/01/15 10:18:04;;;;;;;5.83;3.00;;;;;;;;;;4943895;28;20242;-76
2024/01/15 10:20:32;;;;;;;4.27;2.50;;;;;;;;;;4983525;28;20222;-76
2024/01/15 10:22:59;;;;;;;5.67;2.93;;;;;;;;;;4952400;28;20718;-77
2024/01/15 10:25:30;;;;;;;5.70;2.60;;;;;;;;;;4961340;28;20221;-77
2024/01/15 10:28:06;;;;;;;6.83;3.33;;;;;;;;;;4951686;28;20404;-76
2024/01/15 10:30:36;;;;;;;7.10;2.80;;;;;;;;;;4967755;28;20284;-76
2024/01/15 10:33:03;;;;;;;7.30;4.07;;;;;;;;;;4966794;28;20229;-76
2024/01/15 10:35:29;;;;;;;9.20;6.20;;;;;;;;;;4967782;28;20277;-76
2024/01/15 10:38:00;;;;;;;8.53;2.30;;;;;;;;;;4966963;28;20582;-78
2024/01/15 10:40:25;;;;;;;6.00;2.53;;;;;;;;;;4941088;28;20230;-76
2024/01/15 10:42:53;;;;;;;5.67;2.70;;;;;;;;;;4948355;28;20217;-78
2024/01/15 10:45:21;;;;;;;6.47;2.47;;;;;;;;;;4951361;28;20734;-79
2024/01/15 10:47:48;;;;;;;9.30;2.83;;;;;;;;;;4951895;28;20285;-77
2024/01/15 10:50:14;;;;;;;14.10;5.93;;;;;;;;;;4968840;28;20224;-76
2024/01/15 10:52:43;;;;;;;14.57;7.17;;;;;;;;;;4964834;28;20230;-78
2024/01/15 10:55:09;;;;;;;8.63;4.80;;;;;;;;;;4952285;28;20241;-79
2024/01/15 10:57:40;;;;;;;11.73;4.43;;;;;;;;;;4953227;28;20245;-77
2024/01/15 11:00:06;;;;;;;7.03;3.73;;;;;;;;;;4951676;28;20226;-78
2024/01/15 11:02:38;;;;;;;7.87;3.67;;;;;;;;;;4966623;28;20714;-77
2024/01/15 11:05:04;;;;;;;6.90;2.70;;;;;;;;;;4962169;28;20300;-78
2024/01/15 11:07:32;;;;;;;4.27;1.73;;;;;;;;;;4943785;28;20218;-79
2024/01/15 11:10:03;;;;;;;4.43;2.07;;;;;;;;;;4983742;28;20261;-79
2024/01/15 11:12:30;;;;;;;4.60;2.37;;;;;;;;;;4971664;28;20230;-78
2024/01/15 11:15:08;;;;;;;5.33;3.00;;;;;;;;;;4983145;28;20226;-77
2024/01/15 11:18:00;;;;;;;5.23;3.43;;;;;;;;;;4941302;28;20238;-77
2024/01/15 11:20:28;;;;;;;6.43;3.53;;;;;;;;;;4949413;28;20301;-76
2024/01/15 11:22:57;;;;;;;6.30;3.57;;;;;;;;;;4942428;28;20228;-76
2024/01/15 11:25:22;;;;;;;9.47;5.83;;;;;;;;;;4959879;28;20222;-78
2024/01/15 11:27:54;;;;;;;6.23;3.30;;;;;;;;;;4951246;28;20229;-78
2024/01/15 11:30:26;;;;;;;9.50;4.00;;;;;;;;;;4968173;28;22310;-77
2024/01/15 11:32:57;;;;;;;5.63;3.93;;;;;;;;;;4928156;28;20232;-77
2024/01/15 11:35:24;;;;;;;7.73;4.33;;;;;;;;;;4979679;28;20664;-78
2024/01/15 11:37:56;;;;;;;7.37;4.23;;;;;;;;;;4962120;28;20230;-78
2024/01/15 11:40:44;;;;;;;8.57;4.77;;;;;;;;;;4968168;28;20221;-77
2024/01/15 11:43:13;;;;;;;8.47;5.80;;;;;;;;;;4967455;28;20228;-77
2024/01/15 11:45:41;;;;;;;12.50;8.13;;;;;;;;;;4943768;28;20698;-77
2024/01/15 11:48:13;;;;;;;10.90;6.93;;;;;;;;;;4958832;28;20229;-78
2024/01/15 11:50:51;;;;;;;7.67;4.17;;;;;;;;;;4966786;28;20237;-77
2024/01/15 11:53:18;;;;;;;9.80;5.00;;;;;;;;;;4966680;28;20759;-77
2024/01/15 11:55:45;;;;;;;5.70;3.80;;;;;;;;;;4948749;28;20837;-77
2024/01/15 11:58:11;;;;;;;6.70;4.00;;;;;;;;;;4943890;28;20240;-77
2024/01/15 12:00:47;;;;;;;5.07;2.80;;;;;;;;;;4952429;28;20230;-77
2024/01/15 12:03:13;;;;;;;10.07;5.07;;;;;;;;;;4960185;28;20218;-77
2024/01/15 12:05:41;;;;;;;8.07;3.87;;;;;;;;;;4944970;28;20230;-77
2024/01/15 12:08:10;;;;;;;8.87;4.83;;;;;;;;;;4965903;28;20237;-75
2024/01/15 12:10:43;;;;;;;10.20;4.80;;;;;;;;;;4968167;28;20230;-75
2024/01/15 12:13:13;;;;;;;6.23;2.97;;;;;;;;;;4931469;28;20568;-77
2024/01/15 12:15:41;;;;;;;6.87;3.27;;;;;;;;;;4948945;28;20254;-77
2024/01/15 12:18:07;;;;;;;7.00;3.30;;;;;;;;;;4941451;28;20222;-77
2024/01/15 12:20:35;;;;;;;6.37;3.40;;;;;;;;;;4927793;28;20238;-78
2024/01/15 12:23:03;;;;;;;6.67;2.90;;;;;;;;;;4950230;28;20269;-76
2024/01/15 12:25:28;;;;;;;6.00;3.10;;;;;;;;;;4952607;28;20230;-76
2024/01/15 12:27:54;;;;;;;8.57;3.00;;;;;;;;;;4928594;28;20245;-76
2024/01/15 12:30:22;;;;;;;5.87;2.70;;;;;;;;;;4935211;28;20237;-76
2024/01/15 12:32:47;;;;;;;5.00;2.30;;;;;;;;;;4952799;28;20293;-77
2024/01/15 12:35:13;;;;;;;11.00;4.37;;;;;;;;;;4969048;28;20583;-79
2024/01/15 12:37:40;;;;;;;11.43;6.17;;;;;;;;;;4953283;28;20933;-77
2024/01/15 12:40:11;;;;;;;10.27;5.90;;;;;;;;;;4961703;28;20694;-78
2024/01/15 12:42:42;;;;;;;7.40;4.87;;;;;;;;;;4950308;28;20230;-77
2024/01/15 12:45:11;;;;;;;10.27;5.37;;;;;;;;;;4945561;28;20218;-77
2024/01/15 12:47:40;;;;;;;7.63;4.93;;;;;;;;;;4954097;28;20230;-77
2024/01/15 12:50:11;;;;;;;7.97;4.00;;;;;;;;;;4953074;28;20226;-77
2024/01/15 12:52:39;;;;;;;7.77;3.07;;;;;;;;;;4952872;28;20293;-77
2024/01/15 12:55:08;;;;;;;6.20;2.83;;;;;;;;;;4964791;28;20859;-78
2024/01/15 12:57:37;;;;;;;8.33;4.70;;;;;;;;;;4971561;28;20612;-77
2024/01/15 13:00:07;;;;;;;5.73;3.63;;;;;;;;;;4930273;28;20683;-76
2024/01/15 13:02:33;;;;;;;5.20;2.87;;;;;;;;;;4985104;28;20230;-76
2024/01/15 13:04:59;;;;;;;5.70;3.23;;;;;;;;;;4964168;28;20464;-77
2024/01/15 13:07:27;;;;;;;7.80;3.87;;;;;;;;;;4955199;28;20291;-76
2024/01/15 13:09:53;;;;;;;7.53;4.90;;;;;;;;;;4953064;28;20238;-77
2024/01/15 13:12:20;;;;;;;5.53;4.27;;;;;;;;;;4952845;28;20226;-76
2024/01/15 13:14:46;;;;;;;7.77;5.53;;;;;;;;;;4970513;28;20226;-78
2024/01/15 13:17:13;;;;;;;9.03;6.90;;;;;;;;;;4969579;28;20302;-76
2024/01/15 13:19:42;;;;;;;7.60;4.97;;;;;;;;;;4952717;28;20231;-77
2024/01/15 13:22:13;;;;;;;6.63;5.30;;;;;;;;;;4969519;28;20573;-76
2024/01/15 13:24:42;;;;;;;10.47;7.00;;;;;;;;;;4970469;28;20229;-76
2024/01/15 13:27:10;;;;;;;8.90;7.57;;;;;;;;;;4968742;28;20859;-76
2024/01/15 13:29:41;;;;;;;10.57;7.17;;;;;;;;;;4971459;28;20792;-76
2024/01/15 13:32:07;;;;;;;7.90;4.37;;;;;;;;;;4943897;28;20326;-77
2024/01/15 13:34:33;;;;;;;10.03;7.87;;;;;;;;;;4959826;28;20280;-77
2024/01/15 13:36:58;;;;;;;14.77;10.53;;;;;;;;;;4978421;28;20284;-85
2024/01/15 13:39:24;;;;;;;15.87;10.70;;;;;;;;;;4962279;28;20229;-86
2024/01/15 13:41:52;;;;;;;11.57;7.30;;;;;;;;;;4968537;28;20233;-85
2024/01/15 13:44:21;;;;;;;6.47;4.70;;;;;;;;;;4960388;28;20234;-85
2024/01/15 13:46:46;;;;;;;6.90;4.63;;;;;;;;;;4954977;28;20263;-88
2024/01/15 13:49:14;;;;;;;9.57;5.90;;;;;;;;;;4968529;28;20227;-86
2024/01/15 13:51:40;;;;;;;7.87;3.53;;;;;;;;;;4983996;28;20235;-85
2024/01/15 13:54:07;;;;;;;5.07;3.83;;;;;;;;;;4981945;28;20226;-85
2024/01/15 13:56:35;;;;;;;8.90;6.40;;;;;;;;;;4966417;28;20236;-86
2024/01/15 13:59:04;;;;;;;6.13;4.90;;;;;;;;;;4949963;28;20229;-83
2024/01/15 14:01:32;;;;;;;6.60;4.23;;;;;;;;;;4946063;28;20225;-85
2024/01/15 14:03:57;;;;;;;8.23;5.50;;;;;;;;;;4955575;28;20222;-85
2024/01/15 14:06:24;;;;;;;10.93;7.07;;;;;;;;;;4953355;28;20230;-86
2024/01/15 14:08:52;;;;;;;5.50;4.87;;;;;;;;;;4938016;28;20293;-86
2024/01/15 14:11:20;;;;;;;4.97;4.47;;;;;;;;;;4952885;28;20221;-87
2024/01/15 14:13:48;;;;;;;4.93;3.90;;;;;;;;;;4948749;28;20256;-88
2024/01/15 14:16:16;;;;;;;6.97;5.10;;;;;;;;;;4957413;28;20603;-86
2024/01/15 14:18:44;;;;;;;6.20;4.83;;;;;;;;;;4953067;28;20226;-89
2024/01/15 14:21:12;;;;;;;6.87;5.27;;;;;;;;;;4979307;28;20217;-85
2024/01/15 14:23:39;;;;;;;7.53;4.60;;;;;;;;;;4964651;28;20289;-85
2024/01/15 14:26:07;;;;;;;7.63;5.37;;;;;;;;;;4963901;28;20357;-87
2024/01/15 14:28:33;;;;;;;8.43;5.63;;;;;;;;;;4942386;28;20222;-87
2024/01/15 14:31:00;;;;;;;7.13;5.43;;;;;;;;;;4950382;28;20223;-89
2024/01/15 14:33:26;;;;;;;7.37;5.83;;;;;;;;;;4970654;28;20218;-87
2024/01/15 14:35:54;;;;;;;10.37;6.53;;;;;;;;;;4952466;28;20230;-86
2024/01/15 14:38:23;;;;;;;9.50;7.00;;;;;;;;;;4961475;28;20230;-87
2024/01/15 14:40:52;;;;;;;6.50;5.50;;;;;;;;;;4954555;28;20217;-86
2024/01/15 14:43:21;;;;;;;6.60;5.07;;;;;;;;;;4918759;28;20246;-85
2024/01/15 14:45:48;;;;;;;6.13;5.27;;;;;;;;;;4952746;28;20234;-88